Time;durP1;ratioP1;P1;durP2;ratioP2;P2;SDS_P1;SDS_P2;PMS_P1;PMS_P2;Temp;Humidity;BMP_temperature;BMP_pressure;BME280_temperature;BME280_humidity;BME280_pressure;Samples;Min_cycle;Max_cycle;Signal;HPM_P1;HPM_P2
2023/01/09 04:57:31;;;;;;;21.62;15.27;;;;;;;9.82;87.18;99731.31;5604444;31;125425;-59
2023/01/09 05:00:34;;;;;;;22.05;15.05;;;;;;;9.82;87.18;99731.31;5584078;31;33407;-60
2023/01/09 05:03:36;;;;;;;21.20;16.20;;;;;;;9.25;88.64;99731.31;5581898;32;32752;-60
2023/01/09 05:06:38;;;;;;;20.83;15.85;;;;;;;9.16;91.21;99731.12;5564396;32;33647;-60
2023/01/09 05:09:41;;;;;;;20.65;15.05;;;;;;;9.15;89.75;99732.22;5564582;32;33686;-60
2023/01/09 05:12:44;;;;;;;21.62;15.07;;;;;;;9.08;92.16;99723.75;5564038;32;33526;-60
2023/01/09 05:15:46;;;;;;;21.25;14.85;;;;;;;9.12;89.48;99726.66;5564311;32;33586;-60
2023/01/09 05:18:48;;;;;;;22.13;15.65;;;;;;;9.26;88.08;99719.50;5564174;32;33611;-60
2023/01/09 05:21:50;;;;;;;21.95;15.05;;;;;;;9.31;86.58;99721.34;5564392;32;34252;-60
2023/01/09 05:24:53;;;;;;;20.00;15.15;;;;;;;9.34;98.31;99713.53;5564008;32;33546;-60
2023/01/09 05:27:55;;;;;;;22.70;16.08;;;;;;;9.32;88.04;99707.66;5564260;32;33565;-60
2023/01/09 05:30:58;;;;;;;20.40;15.23;;;;;;;9.36;90.51;99703.31;5562835;32;33725;-60
2023/01/09 05:34:00;;;;;;;21.12;15.95;;;;;;;9.36;86.63;99706.00;5563979;32;33636;-60
2023/01/09 05:37:02;;;;;;;22.70;16.23;;;;;;;9.42;94.81;99706.75;5562873;32;33673;-60
2023/01/09 05:40:05;;;;;;;19.98;15.18;;;;;;;9.38;86.82;99706.53;5564071;32;33703;-60
2023/01/09 05:43:07;;;;;;;21.17;16.05;;;;;;;9.40;85.44;99706.22;5564084;32;34331;-60
2023/01/09 05:46:09;;;;;;;22.77;15.27;;;;;;;9.42;85.24;99701.38;5563800;32;33560;-60
2023/01/09 05:49:12;;;;;;;22.40;15.52;;;;;;;9.46;90.11;99698.94;5563883;32;33686;-59
2023/01/09 05:52:14;;;;;;;20.17;15.85;;;;;;;9.47;86.04;99701.34;5564004;32;34359;-59
2023/01/09 05:55:17;;;;;;;24.45;16.90;;;;;;;9.53;84.74;99718.87;5563728;32;33637;-59
2023/01/09 05:58:19;;;;;;;23.48;16.42;;;;;;;9.56;83.88;99712.16;5563832;32;33554;-59
2023/01/09 06:01:22;;;;;;;25.27;15.50;;;;;;;9.53;85.56;99723.44;5570608;32;33683;-59
2023/01/09 06:04:28;;;;;;;20.83;15.82;;;;;;;9.75;98.12;99715.62;5583272;31;34388;-60
2023/01/09 06:07:33;;;;;;;25.45;16.48;;;;;;;9.85;97.58;99706.66;5575463;31;33890;-59
2023/01/09 06:10:36;;;;;;;21.33;15.82;;;;;;;9.74;86.16;99708.69;5568018;32;33696;-59
2023/01/09 06:13:38;;;;;;;22.85;16.27;;;;;;;9.61;84.04;99706.75;5569459;32;33618;-60
2023/01/09 06:16:40;;;;;;;24.27;16.65;;;;;;;9.61;91.45;99717.47;5570003;32;33676;-60
2023/01/09 06:19:43;;;;;;;22.55;16.45;;;;;;;9.50;100.00;99707.97;5569053;32;33568;-60
2023/01/09 06:22:46;;;;;;;21.52;16.87;;;;;;;9.65;89.53;99710.44;5569415;32;33602;-59
2023/01/09 06:25:48;;;;;;;24.87;17.33;;;;;;;9.57;85.12;99727.94;5570174;32;33602;-59
2023/01/09 06:28:51;;;;;;;23.23;17.10;;;;;;;9.54;86.25;99733.09;5568014;32;34454;-59
2023/01/09 06:31:53;;;;;;;22.42;17.80;;;;;;;9.91;100.00;99715.41;5569223;32;34263;-59
2023/01/09 06:34:56;;;;;;;26.55;16.62;;;;;;;9.75;87.36;99737.03;5567782;32;33616;-59
2023/01/09 06:38:00;;;;;;;21.48;15.57;;;;;;;9.68;85.60;99743.84;5568969;32;33732;-60
2023/01/09 06:41:02;;;;;;;23.58;15.30;;;;;;;9.71;88.42;99744.06;5569449;32;34357;-60
2023/01/09 06:44:04;;;;;;;19.48;14.43;;;;;;;9.78;84.44;99746.38;5568286;32;33589;-59
2023/01/09 06:47:07;;;;;;;19.12;14.52;;;;;;;9.77;87.15;99745.59;5565528;32;33641;-59
2023/01/09 06:50:10;;;;;;;20.60;15.35;;;;;;;9.91;89.67;99752.91;5550066;32;34420;-59
2023/01/09 06:53:12;;;;;;;22.70;15.30;;;;;;;9.91;81.65;99737.62;5555303;32;33707;-60
2023/01/09 06:56:14;;;;;;;21.20;14.68;;;;;;;9.94;85.85;99729.00;5558197;32;34324;-60
2023/01/09 06:59:17;;;;;;;18.37;13.50;;;;;;;9.96;82.01;99729.50;5569491;32;34231;-59
2023/01/09 07:02:21;;;;;;;21.20;14.07;;;;;;;10.06;83.30;99732.00;5569186;32;33726;-60
2023/01/09 07:05:23;;;;;;;22.67;14.55;;;;;;;10.05;86.80;99729.63;5568498;31;33304;-59
2023/01/09 07:08:26;;;;;;;19.62;13.90;;;;;;;10.04;83.87;99731.53;5569280;32;34440;-59
2023/01/09 07:11:28;;;;;;;19.12;13.93;;;;;;;10.06;78.71;99732.00;5569003;32;34362;-59
2023/01/09 07:14:30;;;;;;;20.65;14.73;;;;;;;9.93;77.93;99731.97;5561940;32;33884;-60
2023/01/09 07:17:33;;;;;;;22.92;14.85;;;;;;;9.92;85.20;99719.66;5564429;32;33199;-60
2023/01/09 07:20:40;;;;;;;20.42;15.02;;;;;;;9.94;83.28;99718.28;5567345;32;34368;-59
2023/01/09 07:23:45;;;;;;;19.75;13.85;;;;;;;9.86;79.43;99732.31;5568968;32;34351;-59
2023/01/09 07:26:47;;;;;;;20.70;15.52;;;;;;;9.85;80.70;99733.44;5567756;32;33873;-59
2023/01/09 07:29:52;;;;;;;22.05;15.98;;;;;;;9.78;80.55;99730.31;5549518;32;33625;-60
2023/01/09 07:32:54;;;;;;;18.25;14.77;;;;;;;9.72;78.86;99729.59;5549387;32;34313;-60
2023/01/09 07:35:56;;;;;;;19.17;14.30;;;;;;;9.73;86.62;99725.81;5549029;32;34301;-60
2023/01/09 07:38:59;;;;;;;24.27;16.05;;;;;;;9.84;86.37;99716.56;5555489;32;33615;-60
2023/01/09 07:42:06;;;;;;;24.48;15.60;;;;;;;10.04;89.47;99709.31;5568765;32;33608;-60
2023/01/09 07:45:08;;;;;;;23.10;16.05;;;;;;;9.94;83.75;99706.81;5568251;32;33715;-60
2023/01/09 07:48:11;;;;;;;19.35;14.77;;;;;;;9.98;78.48;99702.44;5568527;32;34277;-60
2023/01/09 07:51:13;;;;;;;21.45;15.20;;;;;;;9.99;77.95;99710.16;5568283;32;33690;-60
2023/01/09 07:54:16;;;;;;;19.50;14.38;;;;;;;9.92;78.96;99703.59;5569028;32;33644;-60
2023/01/09 07:57:19;;;;;;;18.58;14.87;;;;;;;10.00;90.94;99697.56;5568280;32;33649;-60
2023/01/09 08:00:21;;;;;;;19.30;14.27;;;;;;;10.17;92.54;99705.09;5568602;32;33880;-60
2023/01/09 08:03:25;;;;;;;19.12;14.60;;;;;;;10.16;81.59;99698.13;5568328;32;33492;-60
2023/01/09 08:06:28;;;;;;;19.75;14.87;;;;;;;10.16;86.71;99698.91;5568757;32;33839;-60
2023/01/09 08:09:30;;;;;;;19.50;14.80;;;;;;;10.04;78.73;99696.72;5568310;32;33702;-60
2023/01/09 08:12:32;;;;;;;19.17;15.43;;;;;;;9.95;91.53;99695.78;5568489;32;33893;-61
2023/01/09 08:15:35;;;;;;;19.00;13.95;;;;;;;10.18;86.82;99698.63;5568482;32;33153;-60
2023/01/09 08:18:37;;;;;;;18.80;14.38;;;;;;;10.23;90.37;99694.00;5567786;32;34443;-60
2023/01/09 08:21:39;;;;;;;20.37;14.30;;;;;;;10.34;96.76;99687.38;5568346;32;33736;-60
2023/01/09 08:24:42;;;;;;;19.85;14.68;;;;;;;10.10;81.15;99687.50;5568241;32;33660;-60
2023/01/09 08:27:44;;;;;;;18.80;14.05;;;;;;;9.79;81.50;99703.25;5568706;32;33802;-60
2023/01/09 08:30:46;;;;;;;19.37;14.87;;;;;;;9.62;82.26;99727.84;5566862;32;33557;-60
2023/01/09 08:33:49;;;;;;;19.58;14.30;;;;;;;9.46;82.98;99742.53;5554730;32;33182;-60
2023/01/09 08:36:52;;;;;;;19.65;14.25;;;;;;;9.61;100.00;99706.75;5545319;32;33690;-60
2023/01/09 08:39:56;;;;;;;19.48;15.38;;;;;;;10.08;99.15;99692.34;5549706;32;34303;-60
2023/01/09 08:49:41;;;;;;;20.80;15.52;;;;;;;9.55;93.10;99706.03;5548587;32;34191;-61
2023/01/09 08:52:43;;;;;;;23.00;16.17;;;;;;;9.30;85.46;99704.47;5548534;32;33624;-60
2023/01/09 08:55:46;;;;;;;23.30;14.35;;;;;;;9.32;87.32;99722.94;5548174;32;33563;-60
2023/01/09 08:58:48;;;;;;;20.92;14.60;;;;;;;9.28;85.74;99729.94;5547883;32;33713;-60
2023/01/09 09:01:50;;;;;;;22.60;16.40;;;;;;;9.23;89.82;99713.94;5547783;32;33261;-60
2023/01/09 09:04:54;;;;;;;19.55;15.05;;;;;;;9.67;96.88;99702.09;5560799;32;34276;-60
2023/01/09 09:07:58;;;;;;;19.75;14.52;;;;;;;9.65;95.56;99692.50;5567252;32;33646;-60
2023/01/09 09:11:00;;;;;;;21.83;16.00;;;;;;;9.50;86.80;99686.56;5566460;32;34377;-60
2023/01/09 09:15:11;;;;;;;21.52;16.40;;;;;;;9.28;87.27;99674.56;5567295;32;33707;-60
2023/01/09 09:17:27;;;;;;;21.33;15.77;;;;;;;9.16;86.83;99679.53;5548526;32;33593;-60
2023/01/09 09:20:32;;;;;;;21.35;15.07;;;;;;;9.07;87.21;99667.88;5558141;32;34292;-60
2023/01/09 09:23:35;;;;;;;20.30;15.73;;;;;;;9.10;96.94;99667.31;5561980;32;34564;-60
2023/01/09 09:26:37;;;;;;;24.25;15.75;;;;;;;9.12;93.48;99667.81;5556663;32;33882;-60
2023/01/09 09:29:40;;;;;;;20.55;16.12;;;;;;;9.00;89.49;99659.41;5554063;32;34339;-60
2023/01/09 09:32:42;;;;;;;20.45;15.93;;;;;;;8.96;88.67;99664.56;5561043;32;33704;-60
2023/01/09 09:35:44;;;;;;;24.33;15.88;;;;;;;8.99;95.06;99655.16;5552969;32;34373;-59
2023/01/09 09:38:46;;;;;;;21.52;15.85;;;;;;;9.24;100.00;99651.34;5563706;32;32165;-60
2023/01/09 09:46:06;;;;;;;22.55;16.35;;;;;;;9.01;92.00;99642.31;5569928;32;33107;-59
2023/01/09 09:49:26;;;;;;;21.12;15.88;;;;;;;9.04;88.91;99650.56;5569407;32;33556;-59
2023/01/09 09:53:18;;;;;;;21.67;15.98;;;;;;;8.85;96.46;99639.84;5569392;32;34239;-59
2023/01/09 09:56:22;;;;;;;22.75;16.92;;;;;;;8.84;91.28;99648.13;5524981;31;31878;-59
2023/01/09 09:59:31;;;;;;;24.05;18.90;;;;;;;8.81;94.24;99648.72;5567669;32;34221;-58
2023/01/09 10:02:49;;;;;;;21.85;16.05;;;;;;;8.77;90.77;99643.13;5568298;32;33887;-58
2023/01/09 10:05:53;;;;;;;22.70;16.02;;;;;;;8.76;92.23;99648.75;5566213;32;33607;-59
2023/01/09 10:09:08;;;;;;;23.67;16.98;;;;;;;8.66;90.19;99642.44;5563729;32;33966;-59
2023/01/09 10:12:29;;;;;;;22.08;16.83;;;;;;;8.77;100.00;99640.44;5568828;32;34462;-59
2023/01/09 10:15:45;;;;;;;22.90;15.45;;;;;;;8.83;95.52;99627.81;5566299;32;33760;-58
2023/01/09 10:19:15;;;;;;;20.33;15.68;;;;;;;8.73;90.82;99639.44;5562808;32;34327;-59
2023/01/09 10:22:17;;;;;;;22.90;16.48;;;;;;;8.73;94.17;99631.41;5568832;32;33748;-61
2023/01/09 10:25:19;;;;;;;26.73;16.05;;;;;;;8.93;99.13;99627.69;5569168;32;33758;-58
2023/01/09 10:29:10;;;;;;;22.52;16.50;;;;;;;8.82;100.00;99628.91;5569533;32;33741;-61
2023/01/09 10:32:24;;;;;;;23.48;15.23;;;;;;;8.80;94.37;99607.81;5559521;31;34333;-61
2023/01/09 10:35:32;;;;;;;21.42;16.27;;;;;;;9.07;100.00;99609.06;5558021;32;33828;-61
2023/01/09 10:38:54;;;;;;;25.95;17.48;;;;;;;9.18;100.00;99599.84;5561778;32;33848;-59
2023/01/09 10:42:02;;;;;;;24.70;18.30;;;;;;;9.00;92.73;99597.94;5549086;32;34341;-58
2023/01/09 10:45:14;;;;;;;25.12;18.02;;;;;;;8.87;96.39;99605.59;5554647;32;33723;-61
2023/01/09 10:48:28;;;;;;;23.12;17.25;;;;;;;9.25;100.00;99597.59;5569771;32;33762;-61
2023/01/09 10:51:46;;;;;;;23.15;17.42;;;;;;;8.99;91.99;99602.50;5569699;32;33830;-61
2023/01/09 10:55:01;;;;;;;23.70;16.48;;;;;;;8.86;91.38;99593.31;5568703;32;34344;-61
2023/01/09 10:58:11;;;;;;;23.38;17.45;;;;;;;8.74;91.71;99587.59;5567837;32;34219;-61
2023/01/09 11:01:13;;;;;;;22.15;17.00;;;;;;;8.97;100.00;99587.81;5569499;32;34365;-61
2023/01/09 11:04:27;;;;;;;23.92;16.58;;;;;;;8.89;95.77;99576.69;5569517;32;33895;-59
2023/01/09 11:07:36;;;;;;;25.58;17.85;;;;;;;8.81;92.53;99571.22;5562305;32;33593;-59
2023/01/09 11:10:56;;;;;;;24.33;17.12;;;;;;;8.73;92.78;99553.13;5569434;32;33756;-58
2023/01/09 11:14:12;;;;;;;22.13;16.87;;;;;;;8.80;94.61;99556.25;5569248;32;34220;-58
2023/01/09 11:17:20;;;;;;;23.50;17.42;;;;;;;8.92;100.00;99548.59;5568827;32;34397;-59
2023/01/09 11:20:28;;;;;;;23.52;17.45;;;;;;;8.90;97.21;99550.75;5569350;32;33762;-58
2023/01/09 11:23:32;;;;;;;25.73;17.95;;;;;;;9.07;97.47;99545.72;5567975;32;33615;-58
2023/01/09 11:26:34;;;;;;;26.42;18.95;;;;;;;9.01;100.00;99540.72;5568788;32;33606;-59
2023/01/09 11:29:37;;;;;;;25.88;18.23;;;;;;;9.10;100.00;99534.41;5568559;32;33892;-59
2023/01/09 11:32:40;;;;;;;23.10;17.15;;;;;;;8.94;92.53;99539.22;5567963;32;33567;-58
2023/01/09 11:35:53;;;;;;;26.27;17.92;;;;;;;8.84;93.37;99547.38;5568999;32;34444;-61
2023/01/09 11:38:57;;;;;;;24.87;18.30;;;;;;;8.79;93.18;99542.09;5569055;32;33729;-62
2023/01/09 11:42:03;;;;;;;23.30;17.73;;;;;;;9.00;100.00;99531.88;5568730;32;33605;-59
2023/01/09 11:45:31;;;;;;;24.37;18.07;;;;;;;8.79;96.29;99526.06;5567738;32;33622;-59
2023/01/09 11:48:36;;;;;;;25.83;17.45;;;;;;;8.88;95.50;99527.00;5559620;32;33886;-58
2023/01/09 11:51:39;;;;;;;27.70;17.98;;;;;;;8.87;95.79;99521.94;5565785;32;34405;-59
2023/01/09 11:54:57;;;;;;;34.05;17.50;;;;;;;8.88;98.26;99520.87;5562751;32;34412;-59
2023/01/09 11:58:00;;;;;;;22.02;17.05;;;;;;;8.86;100.00;99517.69;5564870;32;34360;-59
2023/01/09 12:01:29;;;;;;;23.17;17.42;;;;;;;8.95;98.41;99518.63;5568554;32;33752;-59
2023/01/09 12:04:43;;;;;;;23.23;17.98;;;;;;;8.90;100.00;99527.50;5568149;32;34418;-60
2023/01/09 12:08:20;;;;;;;23.48;17.08;;;;;;;8.79;95.71;99506.56;5568046;32;33834;-59
2023/01/09 12:11:33;;;;;;;23.05;18.00;;;;;;;8.78;95.07;99505.78;5540722;32;35021;-60
2023/01/09 12:15:11;;;;;;;26.73;17.75;;;;;;;8.82;95.05;99501.44;5561830;32;33676;-59
2023/01/09 12:18:50;;;;;;;25.55;18.48;;;;;;;8.83;95.13;99492.31;5565778;32;33747;-59
2023/01/09 12:22:17;;;;;;;21.62;17.55;;;;;;;8.84;100.00;99491.25;5563941;32;34430;-59
2023/01/09 12:25:37;;;;;;;23.48;17.80;;;;;;;9.12;100.00;99483.34;5563235;32;33806;-59
2023/01/09 12:29:07;;;;;;;21.58;17.17;;;;;;;9.06;96.33;99492.53;5557240;32;33975;-60
2023/01/09 12:32:41;;;;;;;24.45;18.00;;;;;;;8.99;92.89;99502.78;5553288;32;34403;-59
2023/01/09 12:36:08;;;;;;;22.75;17.92;;;;;;;8.94;99.43;99496.44;5564966;32;32322;-58
2023/01/09 12:39:33;;;;;;;25.35;18.75;;;;;;;8.99;93.30;99492.09;5559474;32;34120;-59
2023/01/09 12:43:10;;;;;;;22.87;18.50;;;;;;;9.01;91.75;99487.25;5565743;32;33792;-59
2023/01/09 12:46:19;;;;;;;25.25;19.25;;;;;;;8.96;96.63;99476.63;5549538;32;34440;-60
2023/01/09 12:49:38;;;;;;;40.50;28.35;;;;;;;9.14;100.00;99468.59;5558704;32;34479;-60
2023/01/09 12:52:45;;;;;;;25.42;19.87;;;;;;;8.97;96.10;99462.19;5567598;32;33688;-59
2023/01/09 12:55:57;;;;;;;24.48;20.10;;;;;;;8.95;95.92;99457.12;5560856;32;33641;-59
2023/01/09 12:59:31;;;;;;;23.70;18.75;;;;;;;9.09;100.00;99455.28;5565768;32;33604;-59
2023/01/09 13:02:47;;;;;;;26.55;17.67;;;;;;;9.30;100.00;99452.28;5567927;32;34249;-59
2023/01/09 13:05:52;;;;;;;24.23;17.95;;;;;;;9.28;97.08;99443.78;5566251;32;34468;-59
2023/01/09 13:09:12;;;;;;;23.85;17.37;;;;;;;9.43;100.00;99442.69;5557575;32;33645;-59
2023/01/09 13:12:20;;;;;;;22.33;17.85;;;;;;;9.18;95.73;99440.19;5563968;32;33838;-59
2023/01/09 13:15:31;;;;;;;27.70;18.75;;;;;;;9.11;100.00;99433.62;5563450;32;34088;-59
2023/01/09 13:18:48;;;;;;;26.58;19.37;;;;;;;9.08;97.53;99429.66;5567840;32;33139;-60
2023/01/09 13:21:52;;;;;;;25.08;18.65;;;;;;;9.01;100.00;99433.81;5555338;32;33435;-59
2023/01/09 13:25:20;;;;;;;24.37;19.02;;;;;;;9.06;100.00;99437.16;5562013;32;33719;-60
2023/01/09 13:28:45;;;;;;;25.42;19.67;;;;;;;9.12;95.70;99435.22;5561552;32;33778;-59
2023/01/09 13:32:26;;;;;;;25.27;18.12;;;;;;;9.15;99.71;99445.31;5568246;32;33798;-59
2023/01/09 13:35:29;;;;;;;25.10;19.23;;;;;;;9.10;95.94;99443.50;5568610;32;34521;-59
2023/01/09 13:38:37;;;;;;;26.75;19.80;;;;;;;9.25;100.00;99436.34;5564674;32;33698;-59
2023/01/09 13:45:16;;;;;;;25.75;18.98;;;;;;;9.25;93.10;99452.37;5560346;32;33739;-59
2023/01/09 13:48:28;;;;;;;24.77;18.35;;;;;;;9.24;93.31;99451.59;5566868;32;33932;-59
2023/01/09 13:51:42;;;;;;;25.65;19.50;;;;;;;9.20;100.00;99458.59;5563911;32;33721;-59
2023/01/09 13:54:57;;;;;;;22.52;18.58;;;;;;;9.29;93.64;99456.84;5568489;32;33772;-60
2023/01/09 13:58:06;;;;;;;24.63;19.05;;;;;;;9.30;100.00;99457.63;5568124;32;33816;-59
2023/01/09 14:01:38;;;;;;;23.87;19.12;;;;;;;9.21;96.74;99462.09;5569898;32;34302;-59
2023/01/09 14:04:43;;;;;;;25.83;19.33;;;;;;;9.21;97.01;99456.72;5555068;31;34955;-59
2023/01/09 14:07:48;;;;;;;23.48;18.62;;;;;;;9.24;93.31;99467.63;5569132;32;34408;-59
2023/01/09 14:10:57;;;;;;;28.30;20.17;;;;;;;9.24;92.25;99472.16;5569919;32;34594;-60
2023/01/09 14:14:02;;;;;;;26.73;20.15;;;;;;;9.17;99.62;99472.53;5563215;32;34414;-60
2023/01/09 14:17:15;;;;;;;28.05;21.27;;;;;;;9.11;100.00;99463.03;5569958;32;33644;-59
2023/01/09 14:20:29;;;;;;;24.92;20.10;;;;;;;9.14;98.32;99457.91;5569121;32;34405;-59
2023/01/09 14:23:39;;;;;;;24.75;19.85;;;;;;;9.20;95.90;99455.13;5569548;32;33570;-60
2023/01/09 14:26:56;;;;;;;27.15;22.60;;;;;;;9.16;97.40;99447.69;5569909;32;33725;-59
2023/01/09 14:30:33;;;;;;;26.87;20.45;;;;;;;9.18;97.32;99458.09;5569208;32;33777;-59
2023/01/09 14:33:35;;;;;;;24.67;20.23;;;;;;;9.21;95.38;99462.88;5569613;32;34415;-59
2023/01/09 14:36:39;;;;;;;27.23;20.45;;;;;;;9.23;95.36;99454.53;5569739;32;33721;-60
2023/01/09 14:39:45;;;;;;;29.45;21.75;;;;;;;9.18;100.00;99458.91;5569942;32;33618;-59
2023/01/09 14:42:51;;;;;;;28.53;21.37;;;;;;;9.30;100.00;99449.59;5569141;32;33739;-59
2023/01/09 14:46:01;;;;;;;26.90;21.23;;;;;;;9.37;100.00;99448.16;5568597;32;34424;-59
2023/01/09 14:50:02;;;;;;;28.50;21.33;;;;;;;9.53;100.00;99443.28;5569760;32;34140;-59
2023/01/09 14:53:21;;;;;;;30.37;22.40;;;;;;;9.49;98.66;99434.28;5517981;31;34007;-59
2023/01/09 14:56:32;;;;;;;30.58;21.42;;;;;;;9.36;97.07;99443.88;5569248;32;33591;-59
2023/01/09 14:59:34;;;;;;;30.75;22.25;;;;;;;9.49;100.00;99436.16;5569660;32;33460;-59
2023/01/09 15:02:38;;;;;;;28.70;21.33;;;;;;;9.47;97.18;99449.84;5569209;32;33799;-60
2023/01/09 15:05:44;;;;;;;34.38;22.45;;;;;;;9.46;97.37;99437.53;5569341;32;33768;-59
2023/01/09 15:08:52;;;;;;;28.80;23.25;;;;;;;9.46;100.00;99439.44;5568853;32;33784;-59
2023/01/09 15:12:00;;;;;;;28.45;21.20;;;;;;;9.36;96.87;99446.53;5565472;32;33789;-59
2023/01/09 15:15:04;;;;;;;31.33;23.02;;;;;;;9.35;95.74;99446.84;5565135;32;33704;-59
2023/01/09 15:18:09;;;;;;;25.52;21.55;;;;;;;9.36;97.55;99441.19;5567778;32;33707;-59
2023/01/09 15:21:18;;;;;;;26.60;22.33;;;;;;;9.47;99.83;99446.34;5550022;32;33649;-59
2023/01/09 15:24:25;;;;;;;28.70;21.40;;;;;;;9.47;97.72;99446.34;5567335;32;34465;-59
2023/01/09 15:27:28;;;;;;;31.08;22.75;;;;;;;9.45;95.46;99456.56;5569248;32;33793;-60
2023/01/09 15:30:34;;;;;;;28.67;22.30;;;;;;;9.48;95.46;99454.09;5569845;32;33254;-59
2023/01/09 15:33:41;;;;;;;31.02;22.80;;;;;;;9.46;96.31;99452.81;5569479;32;33682;-60
2023/01/09 15:36:43;;;;;;;28.17;21.62;;;;;;;9.46;94.60;99456.28;5569553;32;33721;-60
2023/01/09 15:39:46;;;;;;;26.12;21.15;;;;;;;9.46;94.13;99453.59;5568238;32;34443;-59
2023/01/09 15:42:57;;;;;;;30.12;23.12;;;;;;;9.51;100.00;99447.38;5569138;32;34424;-60
2023/01/09 15:46:00;;;;;;;30.33;23.08;;;;;;;9.47;96.65;99441.81;5569507;32;33615;-60
2023/01/09 15:49:02;;;;;;;28.75;21.60;;;;;;;9.45;95.24;99443.19;5569102;32;33942;-60
2023/01/09 15:52:10;;;;;;;28.58;22.42;;;;;;;9.37;95.68;99442.81;5568670;32;33597;-59
2023/01/09 15:55:22;;;;;;;26.92;22.00;;;;;;;9.32;95.02;99437.53;5568915;32;34815;-59
2023/01/09 15:58:33;;;;;;;24.92;21.30;;;;;;;9.27;96.80;99429.59;5568838;32;34430;-60
2023/01/09 16:01:40;;;;;;;28.67;22.37;;;;;;;9.63;100.00;99428.94;5568700;32;33790;-60
2023/01/09 16:04:42;;;;;;;27.55;21.42;;;;;;;9.64;96.90;99419.84;5567988;32;34383;-60
2023/01/09 16:07:50;;;;;;;26.37;21.45;;;;;;;9.62;100.00;99411.31;5569185;32;33695;-59
2023/01/09 16:10:56;;;;;;;27.10;22.45;;;;;;;10.19;100.00;99409.06;5569334;32;33766;-60
2023/01/09 16:14:12;;;;;;;25.55;20.33;;;;;;;10.29;100.00;99408.06;5568977;32;33800;-59
2023/01/09 16:17:19;;;;;;;25.65;20.65;;;;;;;10.13;100.00;99404.91;5569114;32;34377;-60
2023/01/09 16:20:25;;;;;;;23.92;18.85;;;;;;;10.20;100.00;99405.31;5568919;32;33606;-60
2023/01/09 16:23:30;;;;;;;28.33;21.45;;;;;;;10.26;100.00;99406.78;5568255;32;33660;-60
2023/01/09 16:26:33;;;;;;;25.48;21.17;;;;;;;9.95;100.00;99414.66;5569088;32;33642;-60
2023/01/09 16:29:37;;;;;;;27.08;22.33;;;;;;;9.80;100.00;99412.28;5568973;32;33333;-60
2023/01/09 16:32:50;;;;;;;28.90;22.15;;;;;;;9.92;100.00;99401.88;5567953;32;34388;-60
2023/01/09 16:35:52;;;;;;;26.48;20.58;;;;;;;9.86;100.00;99403.06;5569079;32;34405;-60
2023/01/09 16:38:56;;;;;;;27.13;22.30;;;;;;;9.69;100.00;99406.34;5567667;32;34359;-59
